createdAt,value
2019-06-08T00:00:16.795Z,1008.29
2019-06-08T00:01:16.418Z,1008.29
2019-06-08T00:02:16.617Z,1008.24
2019-06-08T00:03:16.680Z,1008.20
2019-06-08T00:04:16.511Z,1008.19
2019-06-08T00:05:16.879Z,1008.17
2019-06-08T00:06:16.753Z,1008.16
2019-06-08T00:07:16.617Z,1008.19
2019-06-08T00:08:16.822Z,1008.17
2019-06-08T00:09:16.775Z,1008.20
2019-06-08T00:10:16.904Z,1008.17
2019-06-08T00:11:16.863Z,1008.18
2019-06-08T00:12:16.872Z,1008.14
2019-06-08T00:13:16.958Z,1008.12
2019-06-08T00:14:17.346Z,1008.13
2019-06-08T00:15:16.176Z,1008.13
2019-06-08T00:16:15.777Z,1008.14
2019-06-08T00:17:30.336Z,1008.11
2019-06-08T00:18:15.784Z,1008.17
2019-06-08T00:19:15.782Z,1008.18
2019-06-08T00:20:15.789Z,1008.19
2019-06-08T00:21:15.791Z,1008.20
2019-06-08T00:22:15.811Z,1008.20
2019-06-08T00:23:15.796Z,1008.24
2019-06-08T00:24:15.796Z,1008.29
2019-06-08T00:25:15.877Z,1008.28
2019-06-08T00:26:16.017Z,1008.28
2019-06-08T00:27:16.040Z,1008.29
2019-06-08T00:28:16.159Z,1008.31
2019-06-08T00:29:16.269Z,1008.29
2019-06-08T00:30:15.801Z,1008.34
2019-06-08T00:31:15.806Z,1008.46
2019-06-08T00:32:16.169Z,1008.48
2019-06-08T00:33:17.068Z,1008.51
2019-06-08T00:34:16.576Z,1008.56
2019-06-08T00:35:16.571Z,1008.63
2019-06-08T00:36:16.737Z,1008.59
2019-06-08T00:37:16.703Z,1008.59
2019-06-08T00:38:16.902Z,1008.57
2019-06-08T00:39:16.749Z,1008.49
2019-06-08T00:40:16.845Z,1008.39
2019-06-08T00:41:16.970Z,1008.27
2019-06-08T00:42:17.013Z,1008.24
2019-06-08T00:43:17.067Z,1008.35
2019-06-08T00:44:17.052Z,1008.42
2019-06-08T00:45:17.235Z,1008.45
2019-06-08T00:46:15.834Z,1008.53
2019-06-08T00:47:16.362Z,1008.49
2019-06-08T00:48:16.748Z,1008.58
2019-06-08T00:49:16.445Z,1008.55
2019-06-08T00:50:16.708Z,1008.56
2019-06-08T00:51:16.775Z,1008.67
2019-06-08T00:52:16.907Z,1008.68
2019-06-08T00:53:17.039Z,1008.67
2019-06-08T00:54:17.270Z,1008.60
2019-06-08T00:55:15.855Z,1008.62
2019-06-08T00:56:15.852Z,1008.64
2019-06-08T00:57:15.852Z,1008.65
2019-06-08T00:58:15.858Z,1008.67
2019-06-08T00:59:15.855Z,1008.68
2019-06-08T01:00:15.866Z,1008.72
2019-06-08T01:01:15.859Z,1008.72
2019-06-08T01:02:15.860Z,1008.74
2019-06-08T01:03:15.860Z,1008.73
2019-06-08T01:04:15.865Z,1008.75
2019-06-08T01:05:15.864Z,1008.79
2019-06-08T01:06:15.867Z,1008.79
2019-06-08T01:07:15.872Z,1008.79
2019-06-08T01:08:15.909Z,1008.85
2019-06-08T01:09:15.873Z,1008.83
2019-06-08T01:10:15.873Z,1008.86
2019-06-08T01:11:15.876Z,1008.85
2019-06-08T01:12:15.921Z,1008.85
2019-06-08T01:13:15.880Z,1008.88
2019-06-08T01:14:15.891Z,1008.94
2019-06-08T01:15:15.910Z,1008.95
2019-06-08T01:16:15.888Z,1008.99
2019-06-08T01:17:15.885Z,1009.01
2019-06-08T01:18:15.887Z,1009.06
2019-06-08T01:19:15.889Z,1009.06
2019-06-08T01:20:15.891Z,1009.11
2019-06-08T01:21:15.901Z,1009.10
2019-06-08T01:22:15.896Z,1009.11
2019-06-08T01:23:15.899Z,1009.13
2019-06-08T01:24:15.902Z,1009.17
2019-06-08T01:25:15.901Z,1009.22
2019-06-08T01:26:15.901Z,1009.24
2019-06-08T01:27:15.907Z,1009.27
2019-06-08T01:28:15.908Z,1009.25
2019-06-08T01:29:15.906Z,1009.22
2019-06-08T01:30:15.979Z,1009.29
2019-06-08T01:31:15.915Z,1009.36
2019-06-08T01:32:15.912Z,1009.37
2019-06-08T01:33:15.909Z,1009.36
2019-06-08T01:34:15.917Z,1009.34
2019-06-08T01:35:15.920Z,1009.30
2019-06-08T01:36:15.922Z,1009.28
2019-06-08T01:37:15.920Z,1009.31
2019-06-08T01:38:15.921Z,1009.24
2019-06-08T01:39:16.074Z,1009.30
2019-06-08T01:40:15.926Z,1009.28
2019-06-08T01:41:15.928Z,1009.30
2019-06-08T01:42:15.936Z,1009.30
2019-06-08T01:43:15.933Z,1009.35
2019-06-08T01:44:15.934Z,1009.35
2019-06-08T01:45:15.939Z,1009.36
2019-06-08T01:46:15.939Z,1009.37
2019-06-08T01:47:15.940Z,1009.39
2019-06-08T01:48:20.415Z,1009.36
2019-06-08T01:49:15.940Z,1009.37
2019-06-08T01:50:15.956Z,1009.35
2019-06-08T01:51:15.950Z,1009.39
2019-06-08T01:52:15.950Z,1009.44
2019-06-08T01:53:15.956Z,1009.44
2019-06-08T01:54:15.954Z,1009.50
2019-06-08T01:55:15.958Z,1009.49
2019-06-08T01:56:15.962Z,1009.58
2019-06-08T01:57:15.967Z,1009.59
2019-06-08T01:58:15.958Z,1009.61
2019-06-08T01:59:15.962Z,1009.67
2019-06-08T02:00:29.683Z,1009.81
2019-06-08T02:01:15.968Z,1009.72
2019-06-08T02:02:15.970Z,1009.72
2019-06-08T02:03:15.972Z,1009.75
2019-06-08T02:04:15.978Z,1009.72
2019-06-08T02:05:15.972Z,1009.72
2019-06-08T02:06:15.980Z,1009.73
2019-06-08T02:07:15.982Z,1009.68
2019-06-08T02:08:15.982Z,1009.67
2019-06-08T02:09:15.984Z,1009.62
2019-06-08T02:10:15.986Z,1009.65
2019-06-08T02:11:15.992Z,1009.69
2019-06-08T02:12:15.988Z,1009.72
2019-06-08T02:13:15.991Z,1009.74
2019-06-08T02:14:15.992Z,1009.75
2019-06-08T02:15:15.997Z,1009.75
2019-06-08T02:16:16.000Z,1009.77
2019-06-08T02:17:16.028Z,1009.79
2019-06-08T02:18:16.004Z,1009.82
2019-06-08T02:19:16.006Z,1009.84
2019-06-08T02:20:16.002Z,1009.92
2019-06-08T02:21:16.003Z,1009.94
2019-06-08T02:22:16.014Z,1010.07
2019-06-08T02:23:16.010Z,1010.16
2019-06-08T02:24:16.014Z,1010.15
2019-06-08T02:25:16.016Z,1010.20
2019-06-08T02:26:16.018Z,1010.20
2019-06-08T02:27:16.022Z,1010.34
2019-06-08T02:28:16.020Z,1010.45
2019-06-08T02:29:16.024Z,1010.51
2019-06-08T02:30:16.026Z,1010.52
2019-06-08T02:31:16.030Z,1010.56
2019-06-08T02:32:16.031Z,1010.57
2019-06-08T02:33:16.035Z,1010.61
2019-06-08T02:34:16.037Z,1010.61
2019-06-08T02:35:16.036Z,1010.70
2019-06-08T02:36:16.055Z,1010.68
2019-06-08T02:37:16.045Z,1010.69
2019-06-08T02:38:16.044Z,1010.78
2019-06-08T02:39:16.044Z,1010.88
2019-06-08T02:40:16.047Z,1010.91
2019-06-08T02:41:16.043Z,1010.93
2019-06-08T02:42:16.051Z,1010.99
2019-06-08T02:43:16.060Z,1011.03
2019-06-08T02:44:16.059Z,1011.09
2019-06-08T02:45:16.056Z,1011.12
2019-06-08T02:46:16.058Z,1011.18
2019-06-08T02:47:16.514Z,1011.13
2019-06-08T02:48:16.261Z,1011.18
2019-06-08T02:49:16.068Z,1011.13
2019-06-08T02:50:16.068Z,1011.20
2019-06-08T02:51:16.078Z,1011.14
2019-06-08T02:52:16.080Z,1011.19
2019-06-08T02:53:16.075Z,1011.22
2019-06-08T02:54:16.079Z,1011.24
2019-06-08T02:55:16.082Z,1011.25
2019-06-08T02:56:16.091Z,1011.33
2019-06-08T02:57:16.093Z,1011.32
2019-06-08T02:58:16.081Z,1011.31
2019-06-08T02:59:16.085Z,1011.30
2019-06-08T03:00:16.092Z,1011.29
2019-06-08T03:01:16.091Z,1011.31
2019-06-08T03:02:16.095Z,1011.32
2019-06-08T03:03:16.094Z,1011.28
2019-06-08T03:04:16.100Z,1011.30
2019-06-08T03:05:16.105Z,1011.32
2019-06-08T03:06:16.097Z,1011.35
2019-06-08T03:07:16.107Z,1011.38
2019-06-08T03:08:16.104Z,1011.37
2019-06-08T03:09:16.105Z,1011.36
2019-06-08T03:10:16.114Z,1011.35
2019-06-08T03:11:16.109Z,1011.40
2019-06-08T03:12:16.114Z,1011.44
2019-06-08T03:13:16.115Z,1011.45
2019-06-08T03:14:16.318Z,1011.48
2019-06-08T03:15:16.120Z,1011.49
2019-06-08T03:16:16.124Z,1011.50
2019-06-08T03:17:16.123Z,1011.50
2019-06-08T03:18:16.127Z,1011.50
2019-06-08T03:19:21.469Z,1011.45
2019-06-08T03:20:16.131Z,1011.42
2019-06-08T03:21:16.135Z,1011.38
2019-06-08T03:22:16.137Z,1011.43
2019-06-08T03:23:16.137Z,1011.43
2019-06-08T03:24:16.135Z,1011.45
2019-06-08T03:25:16.133Z,1011.43
2019-06-08T03:26:16.139Z,1011.45
2019-06-08T03:27:16.145Z,1011.44
2019-06-08T03:28:16.155Z,1011.49
2019-06-08T03:29:16.144Z,1011.52
2019-06-08T03:30:18.920Z,1011.46
2019-06-08T03:31:16.151Z,1011.49
2019-06-08T03:32:16.153Z,1011.41
2019-06-08T03:33:16.154Z,1011.37
2019-06-08T03:34:16.163Z,1011.35
2019-06-08T03:35:16.159Z,1011.39
2019-06-08T03:36:16.172Z,1011.35
2019-06-08T03:37:16.165Z,1011.41
2019-06-08T03:38:16.162Z,1011.41
2019-06-08T03:39:16.173Z,1011.35
2019-06-08T03:40:16.167Z,1011.33
2019-06-08T03:41:16.169Z,1011.36
2019-06-08T03:42:16.172Z,1011.40
2019-06-08T03:43:16.179Z,1011.39
2019-06-08T03:44:16.176Z,1011.44
2019-06-08T03:45:16.178Z,1011.43
2019-06-08T03:46:16.193Z,1011.46
2019-06-08T03:47:16.193Z,1011.50
2019-06-08T03:48:16.189Z,1011.50
2019-06-08T03:49:16.196Z,1011.47
2019-06-08T03:50:16.203Z,1011.47
2019-06-08T03:51:16.194Z,1011.41
2019-06-08T03:52:16.193Z,1011.46
2019-06-08T03:53:16.196Z,1011.48
2019-06-08T03:54:16.195Z,1011.56
2019-06-08T03:55:16.197Z,1011.54
2019-06-08T03:56:16.195Z,1011.61
2019-06-08T03:57:16.201Z,1011.61
2019-06-08T03:58:16.217Z,1011.68
2019-06-08T03:59:16.209Z,1011.72
2019-06-08T04:00:16.215Z,1011.75
2019-06-08T04:01:16.213Z,1011.71
2019-06-08T04:02:16.220Z,1011.66
2019-06-08T04:03:16.218Z,1011.54
2019-06-08T04:04:16.221Z,1011.49
2019-06-08T04:05:16.224Z,1011.50
2019-06-08T04:06:16.219Z,1011.30
2019-06-08T04:07:16.230Z,1011.30
2019-06-08T04:08:16.233Z,1011.29
2019-06-08T04:09:16.230Z,1011.24
2019-06-08T04:10:16.231Z,1011.29
2019-06-08T04:11:16.230Z,1011.30
2019-06-08T04:12:16.231Z,1011.24
2019-06-08T04:13:16.241Z,1011.28
2019-06-08T04:14:16.249Z,1011.32
2019-06-08T04:15:16.240Z,1011.41
2019-06-08T04:16:16.239Z,1011.48
2019-06-08T04:17:16.259Z,1011.46
2019-06-08T04:18:16.244Z,1011.36
2019-06-08T04:19:16.258Z,1011.46
2019-06-08T04:20:16.261Z,1011.41
2019-06-08T04:21:16.256Z,1011.44
2019-06-08T04:22:16.254Z,1011.50
2019-06-08T04:23:16.258Z,1011.49
2019-06-08T04:24:16.259Z,1011.49
2019-06-08T04:25:16.259Z,1011.51
2019-06-08T04:26:16.270Z,1011.53
2019-06-08T04:27:16.261Z,1011.51
2019-06-08T04:28:16.262Z,1011.43
2019-06-08T04:29:19.717Z,1011.35
2019-06-08T04:30:16.272Z,1011.27
2019-06-08T04:31:17.072Z,1011.40
2019-06-08T04:32:16.276Z,1011.48
2019-06-08T04:33:16.273Z,1011.56
2019-06-08T04:34:16.275Z,1011.56
2019-06-08T04:35:16.279Z,1011.65
2019-06-08T04:36:16.295Z,1011.71
2019-06-08T04:37:16.285Z,1011.79
2019-06-08T04:38:16.286Z,1011.74
2019-06-08T04:39:16.290Z,1011.67
2019-06-08T04:40:16.287Z,1011.71
2019-06-08T04:41:16.288Z,1011.78
2019-06-08T04:42:16.289Z,1011.83
2019-06-08T04:43:16.293Z,1011.95
2019-06-08T04:44:16.303Z,1012.04
2019-06-08T04:45:16.296Z,1012.09
2019-06-08T04:46:16.302Z,1012.26
2019-06-08T04:47:16.299Z,1012.34
2019-06-08T04:48:16.306Z,1012.26
2019-06-08T04:49:16.307Z,1012.29
2019-06-08T04:50:22.739Z,1012.32
2019-06-08T04:51:16.308Z,1012.36
2019-06-08T04:52:16.308Z,1012.47
2019-06-08T04:53:16.310Z,1012.50
2019-06-08T04:54:16.312Z,1012.52
2019-06-08T04:55:16.314Z,1012.50
2019-06-08T04:56:16.322Z,1012.53
2019-06-08T04:57:16.315Z,1012.64
2019-06-08T04:58:16.324Z,1012.73
2019-06-08T04:59:16.322Z,1012.75
2019-06-08T05:00:16.328Z,1012.68
2019-06-08T05:01:16.326Z,1012.64
2019-06-08T05:02:16.328Z,1012.67
2019-06-08T05:03:16.329Z,1012.68
2019-06-08T05:04:16.331Z,1012.64
2019-06-08T05:05:16.332Z,1012.68
2019-06-08T05:06:16.338Z,1012.69
2019-06-08T05:07:16.330Z,1012.67
2019-06-08T05:08:16.337Z,1012.71
2019-06-08T05:09:16.389Z,1012.72
2019-06-08T05:10:16.345Z,1012.80
2019-06-08T05:11:16.342Z,1012.87
2019-06-08T05:12:16.346Z,1012.85
2019-06-08T05:13:16.347Z,1012.90
2019-06-08T05:14:16.347Z,1012.90
2019-06-08T05:15:16.357Z,1012.91
2019-06-08T05:16:16.358Z,1012.96
2019-06-08T05:17:16.355Z,1012.96
2019-06-08T05:18:16.396Z,1013.05
2019-06-08T05:19:16.358Z,1013.04
2019-06-08T05:20:16.361Z,1013.06
2019-06-08T05:21:16.364Z,1013.05
2019-06-08T05:22:16.363Z,1013.07
2019-06-08T05:23:16.369Z,1013.09
2019-06-08T05:24:16.373Z,1013.11
2019-06-08T05:25:16.373Z,1013.16
2019-06-08T05:26:16.370Z,1013.19
2019-06-08T05:27:16.395Z,1013.21
2019-06-08T05:28:16.386Z,1013.19
2019-06-08T05:29:16.378Z,1013.18
2019-06-08T05:30:16.384Z,1013.22
2019-06-08T05:31:16.378Z,1013.28
2019-06-08T05:32:16.386Z,1013.34
2019-06-08T05:33:16.394Z,1013.33
2019-06-08T05:34:16.385Z,1013.27
2019-06-08T05:35:16.385Z,1013.33
2019-06-08T05:36:16.388Z,1013.38
2019-06-08T05:37:16.390Z,1013.32
2019-06-08T05:38:16.390Z,1013.30
2019-06-08T05:39:16.394Z,1013.31
2019-06-08T05:40:16.395Z,1013.32
2019-06-08T05:41:16.418Z,1013.33
2019-06-08T05:42:16.394Z,1013.37
2019-06-08T05:43:16.400Z,1013.37
2019-06-08T05:44:16.402Z,1013.36
2019-06-08T05:45:16.406Z,1013.34
2019-06-08T05:46:16.401Z,1013.33
2019-06-08T05:47:16.407Z,1013.39
2019-06-08T05:48:16.430Z,1013.38
2019-06-08T05:49:16.412Z,1013.39
2019-06-08T05:50:16.416Z,1013.43
2019-06-08T05:51:16.420Z,1013.65
2019-06-08T05:52:16.418Z,1013.47
2019-06-08T05:53:16.419Z,1013.54
2019-06-08T05:54:16.424Z,1013.58
2019-06-08T05:55:16.428Z,1013.52
2019-06-08T05:56:16.426Z,1013.72
2019-06-08T05:57:16.429Z,1013.68
2019-06-08T05:58:16.428Z,1013.69
2019-06-08T05:59:16.432Z,1013.71
2019-06-08T06:00:16.431Z,1013.76
2019-06-08T06:01:16.430Z,1013.66
2019-06-08T06:02:16.448Z,1013.69
2019-06-08T06:03:16.436Z,1013.57
2019-06-08T06:04:16.439Z,1013.53
2019-06-08T06:05:16.443Z,1013.43
2019-06-08T06:06:16.438Z,1013.44
2019-06-08T06:07:16.442Z,1013.49
2019-06-08T06:08:19.271Z,1013.54
2019-06-08T06:09:16.446Z,1013.67
2019-06-08T06:10:16.446Z,1013.64
2019-06-08T06:11:16.450Z,1013.67
2019-06-08T06:12:16.450Z,1013.75
2019-06-08T06:13:16.455Z,1013.73
2019-06-08T06:14:16.456Z,1013.71
2019-06-08T06:15:16.458Z,1013.78
2019-06-08T06:16:16.455Z,1013.73
2019-06-08T06:17:16.456Z,1013.61
2019-06-08T06:18:16.482Z,1013.73
2019-06-08T06:19:16.464Z,1013.81
2019-06-08T06:20:16.465Z,1013.85
2019-06-08T06:21:16.468Z,1013.79
2019-06-08T06:22:16.462Z,1013.85
2019-06-08T06:23:16.473Z,1013.86
2019-06-08T06:24:16.472Z,1013.83
2019-06-08T06:25:16.478Z,1014.04
2019-06-08T06:26:16.482Z,1013.90
2019-06-08T06:27:16.478Z,1014.03
2019-06-08T06:28:16.484Z,1014.14
2019-06-08T06:29:16.482Z,1014.17
2019-06-08T06:30:16.484Z,1014.14
2019-06-08T06:31:16.485Z,1014.12
2019-06-08T06:32:16.485Z,1014.18
2019-06-08T06:33:16.488Z,1014.26
2019-06-08T06:34:16.484Z,1014.32
2019-06-08T06:35:16.491Z,1014.30
2019-06-08T06:36:16.492Z,1014.27
2019-06-08T06:37:16.496Z,1014.35
2019-06-08T06:38:16.496Z,1014.24
2019-06-08T06:39:16.497Z,1014.18
2019-06-08T06:40:16.507Z,1014.05
2019-06-08T06:41:16.506Z,1013.96
2019-06-08T06:42:16.508Z,1014.00
2019-06-08T06:43:16.507Z,1013.94
2019-06-08T06:44:16.505Z,1014.01
2019-06-08T06:45:16.512Z,1014.11
2019-06-08T06:46:16.510Z,1014.19
2019-06-08T06:47:16.513Z,1014.11
2019-06-08T06:48:16.520Z,1014.11
2019-06-08T06:49:16.516Z,1014.05
2019-06-08T06:50:16.518Z,1013.96
2019-06-08T06:51:25.675Z,1013.94
2019-06-08T06:52:16.521Z,1013.91
2019-06-08T06:53:16.524Z,1013.96
2019-06-08T06:54:16.524Z,1014.10
2019-06-08T06:55:16.530Z,1014.20
2019-06-08T06:56:16.534Z,1014.26
2019-06-08T06:57:16.538Z,1014.44
2019-06-08T06:58:16.546Z,1014.55
2019-06-08T06:59:16.537Z,1014.54
2019-06-08T07:00:16.547Z,1014.53
2019-06-08T07:01:16.541Z,1014.66
2019-06-08T07:02:16.544Z,1014.69
2019-06-08T07:03:16.548Z,1014.81
2019-06-08T07:04:16.563Z,1014.80
2019-06-08T07:05:16.555Z,1014.74
2019-06-08T07:06:16.552Z,1014.72
2019-06-08T07:07:16.568Z,1014.70
2019-06-08T07:08:16.560Z,1014.69
2019-06-08T07:09:16.562Z,1014.67
2019-06-08T07:10:16.568Z,1014.62
2019-06-08T07:11:16.566Z,1014.68
2019-06-08T07:12:16.595Z,1014.71
2019-06-08T07:13:16.570Z,1014.73
2019-06-08T07:14:16.566Z,1014.74
2019-06-08T07:15:16.573Z,1014.69
2019-06-08T07:16:18.895Z,1014.70
2019-06-08T07:17:16.582Z,1014.88
2019-06-08T07:18:16.583Z,1014.92
2019-06-08T07:19:16.582Z,1015.02
2019-06-08T07:20:17.040Z,1015.06
2019-06-08T07:21:16.594Z,1014.86
2019-06-08T07:22:16.594Z,1014.89
2019-06-08T07:23:16.594Z,1014.84
2019-06-08T07:24:16.600Z,1014.88
2019-06-08T07:25:16.598Z,1014.93
2019-06-08T07:26:16.602Z,1014.85
2019-06-08T07:27:16.607Z,1014.86
2019-06-08T07:28:16.601Z,1014.77
2019-06-08T07:29:16.607Z,1014.70
2019-06-08T07:30:16.629Z,1014.82
2019-06-08T07:31:16.612Z,1015.04
2019-06-08T07:32:16.622Z,1014.83
2019-06-08T07:33:16.617Z,1014.79
2019-06-08T07:34:16.621Z,1014.85
2019-06-08T07:35:16.630Z,1014.83
2019-06-08T07:36:16.627Z,1014.74
2019-06-08T07:37:16.625Z,1014.82
2019-06-08T07:38:16.632Z,1014.78
2019-06-08T07:39:16.636Z,1014.94
2019-06-08T07:40:16.635Z,1014.93
2019-06-08T07:41:16.636Z,1014.93
2019-06-08T07:42:16.645Z,1015.07
2019-06-08T07:43:16.649Z,1015.35
2019-06-08T07:44:16.693Z,1015.47
2019-06-08T07:45:16.648Z,1015.34
2019-06-08T07:46:16.657Z,1015.30
2019-06-08T07:47:16.653Z,1015.33
2019-06-08T07:48:16.665Z,1015.48
2019-06-08T07:49:16.665Z,1015.35
2019-06-08T07:50:16.670Z,1015.34
2019-06-08T07:51:16.670Z,1015.37
2019-06-08T07:52:16.974Z,1015.34
2019-06-08T07:53:16.678Z,1015.48
2019-06-08T07:54:16.673Z,1015.55
2019-06-08T07:55:16.681Z,1015.68
2019-06-08T07:56:16.689Z,1015.51
2019-06-08T07:57:16.690Z,1015.76
2019-06-08T07:58:16.703Z,1015.66
2019-06-08T07:59:16.702Z,1015.58
2019-06-08T08:00:16.698Z,1015.50
2019-06-08T08:01:16.700Z,1015.40
2019-06-08T08:02:16.704Z,1015.38
2019-06-08T08:03:16.708Z,1015.29
2019-06-08T08:04:16.709Z,1015.27
2019-06-08T08:05:16.713Z,1015.27
2019-06-08T08:06:16.715Z,1015.27
2019-06-08T08:07:16.721Z,1015.28
2019-06-08T08:08:16.726Z,1015.30
2019-06-08T08:09:16.735Z,1015.33
2019-06-08T08:10:16.748Z,1015.23
2019-06-08T08:11:16.733Z,1015.19
2019-06-08T08:12:16.737Z,1015.30
2019-06-08T08:13:16.740Z,1015.40
2019-06-08T08:14:16.737Z,1015.47
2019-06-08T08:15:16.744Z,1015.54
2019-06-08T08:16:16.749Z,1015.64
2019-06-08T08:17:16.750Z,1015.96
2019-06-08T08:18:16.751Z,1015.72
2019-06-08T08:19:16.749Z,1015.75
2019-06-08T08:20:16.759Z,1015.73
2019-06-08T08:21:23.084Z,1015.71
2019-06-08T08:22:25.027Z,1015.61
2019-06-08T08:23:17.369Z,1015.57
2019-06-08T08:24:17.396Z,1015.83
2019-06-08T08:25:18.267Z,1016.09
2019-06-08T08:26:16.780Z,1016.01
2019-06-08T08:27:17.933Z,1015.86
2019-06-08T08:28:17.678Z,1015.71
2019-06-08T08:29:17.647Z,1015.84
2019-06-08T08:30:17.301Z,1015.65
2019-06-08T08:31:18.595Z,1015.71
2019-06-08T08:32:18.828Z,1015.63
2019-06-08T08:33:18.351Z,1015.53
2019-06-08T08:34:18.280Z,1015.52
2019-06-08T08:35:18.519Z,1015.62
2019-06-08T08:36:18.000Z,1015.47
2019-06-08T08:37:17.581Z,1015.44
2019-06-08T08:38:17.716Z,1015.43
2019-06-08T08:39:17.640Z,1015.35
2019-06-08T08:40:17.818Z,1015.35
2019-06-08T08:41:18.176Z,1015.40
2019-06-08T08:42:17.997Z,1015.38
2019-06-08T08:43:17.862Z,1015.51
2019-06-08T08:44:17.633Z,1015.37
2019-06-08T08:45:18.300Z,1015.34
2019-06-08T08:46:17.304Z,1015.42
2019-06-08T08:47:18.722Z,1015.45
2019-06-08T08:48:25.514Z,1015.57
2019-06-08T08:49:18.242Z,1015.68
2019-06-08T08:50:18.347Z,1015.71
2019-06-08T08:51:17.992Z,1015.58
2019-06-08T08:52:17.502Z,1015.58
2019-06-08T08:53:18.009Z,1015.61
2019-06-08T08:54:18.327Z,1015.53
2019-06-08T08:55:20.235Z,1015.47
2019-06-08T08:56:18.149Z,1015.44
2019-06-08T08:57:18.126Z,1015.42
2019-06-08T08:58:18.586Z,1015.35
2019-06-08T08:59:17.776Z,1015.27
2019-06-08T09:00:18.068Z,1015.23
2019-06-08T09:01:20.269Z,1015.08
2019-06-08T09:02:21.079Z,1015.16
2019-06-08T09:03:29.028Z,1015.14
2019-06-08T09:04:18.536Z,1015.03
2019-06-08T09:05:18.149Z,1014.99
2019-06-08T09:06:18.139Z,1014.91
2019-06-08T09:07:18.384Z,1014.87
2019-06-08T09:08:18.200Z,1014.71
2019-06-08T09:09:18.785Z,1014.76
2019-06-08T09:10:18.298Z,1014.74
2019-06-08T09:11:17.595Z,1014.73
2019-06-08T09:12:18.305Z,1014.73
2019-06-08T09:13:18.675Z,1014.79
2019-06-08T09:14:18.441Z,1014.86
2019-06-08T09:15:19.030Z,1014.94
2019-06-08T09:16:17.735Z,1015.29
2019-06-08T09:17:18.051Z,1015.32
2019-06-08T09:18:18.796Z,1015.52
2019-06-08T09:19:20.544Z,1015.49
2019-06-08T09:20:19.259Z,1015.70
2019-06-08T09:21:18.623Z,1015.68
2019-06-08T09:22:18.798Z,1015.75
2019-06-08T09:23:21.559Z,1015.78
2019-06-08T09:24:18.623Z,1015.78
2019-06-08T09:25:18.150Z,1015.97
2019-06-08T09:26:17.606Z,1015.82
2019-06-08T09:27:17.935Z,1015.71
2019-06-08T09:28:18.619Z,1015.67
2019-06-08T09:29:18.904Z,1015.78
2019-06-08T09:30:18.309Z,1015.84
2019-06-08T09:31:18.724Z,1015.80
2019-06-08T09:32:17.963Z,1015.78
2019-06-08T09:33:18.798Z,1015.83
2019-06-08T09:34:19.476Z,1015.70
2019-06-08T09:35:18.655Z,1015.85
2019-06-08T09:36:17.714Z,1015.87
2019-06-08T09:37:18.516Z,1015.80
2019-06-08T09:38:18.579Z,1015.91
2019-06-08T09:39:18.527Z,1015.93
2019-06-08T09:40:16.983Z,1015.96
2019-06-08T09:41:18.644Z,1015.89
2019-06-08T09:42:20.856Z,1015.85
2019-06-08T09:43:18.933Z,1015.86
2019-06-08T09:44:18.555Z,1015.79
2019-06-08T09:45:18.188Z,1015.74
2019-06-08T09:46:17.902Z,1015.82
2019-06-08T09:47:18.155Z,1015.84
2019-06-08T09:48:18.178Z,1015.90
2019-06-08T09:49:18.770Z,1015.98
2019-06-08T09:50:18.568Z,1015.98
2019-06-08T09:51:18.658Z,1016.13
2019-06-08T09:52:18.499Z,1015.94
2019-06-08T09:53:26.779Z,1015.95
2019-06-08T09:54:18.290Z,1015.93
2019-06-08T09:55:18.081Z,1015.95
2019-06-08T09:56:18.516Z,1015.96
2019-06-08T09:57:18.928Z,1015.96
2019-06-08T09:58:18.104Z,1016.02
2019-06-08T09:59:18.743Z,1016.11
2019-06-08T10:00:21.205Z,1015.92
2019-06-08T10:01:18.435Z,1015.93
2019-06-08T10:02:18.539Z,1015.82
2019-06-08T10:03:18.657Z,1015.81
2019-06-08T10:04:17.032Z,1015.82
2019-06-08T10:05:18.546Z,1015.87
2019-06-08T10:06:18.200Z,1015.94
2019-06-08T10:07:18.639Z,1015.99
2019-06-08T10:08:20.186Z,1016.23
2019-06-08T10:09:18.677Z,1016.20
2019-06-08T10:10:18.220Z,1016.18
2019-06-08T10:11:17.051Z,1016.25
2019-06-08T10:12:18.211Z,1016.29
2019-06-08T10:13:18.990Z,1016.34
2019-06-08T10:14:18.775Z,1016.31
2019-06-08T10:15:17.901Z,1016.47
2019-06-08T10:16:18.605Z,1016.39
2019-06-08T10:17:20.560Z,1016.38
2019-06-08T10:18:17.664Z,1016.35
2019-06-08T10:19:18.691Z,1016.36
2019-06-08T10:20:18.399Z,1016.35
2019-06-08T10:21:18.257Z,1016.33
2019-06-08T10:22:18.187Z,1016.39
2019-06-08T10:23:29.890Z,1016.36
2019-06-08T10:24:17.101Z,1016.35
2019-06-08T10:25:17.077Z,1016.26
2019-06-08T10:26:17.821Z,1016.25
2019-06-08T10:27:18.748Z,1016.18
2019-06-08T10:28:21.054Z,1016.25
2019-06-08T10:29:18.411Z,1016.32
2019-06-08T10:30:17.095Z,1016.24
2019-06-08T10:31:17.592Z,1016.22
2019-06-08T10:32:18.043Z,1016.20
2019-06-08T10:33:18.486Z,1016.12
2019-06-08T10:34:17.110Z,1016.20
2019-06-08T10:35:20.613Z,1016.26
2019-06-08T10:36:18.248Z,1016.32
2019-06-08T10:37:18.675Z,1016.28
2019-06-08T10:38:18.118Z,1016.24
2019-06-08T10:39:17.119Z,1016.21
2019-06-08T10:40:18.711Z,1016.20
2019-06-08T10:41:21.426Z,1015.99
2019-06-08T10:42:18.031Z,1015.90
2019-06-08T10:43:17.477Z,1015.80
2019-06-08T10:44:18.290Z,1015.89
2019-06-08T10:45:18.515Z,1015.94
2019-06-08T10:46:20.699Z,1016.13
2019-06-08T10:47:17.132Z,1016.21
2019-06-08T10:48:17.938Z,1016.10
2019-06-08T10:49:18.714Z,1016.08
2019-06-08T10:50:19.239Z,1016.07
2019-06-08T10:51:18.320Z,1016.09
2019-06-08T10:52:20.087Z,1016.13
2019-06-08T10:53:17.144Z,1016.24
2019-06-08T10:54:17.479Z,1016.21
2019-06-08T10:55:17.997Z,1016.22
2019-06-08T10:56:18.816Z,1016.32
2019-06-08T10:57:18.261Z,1016.36
2019-06-08T10:58:19.359Z,1016.47
2019-06-08T10:59:18.561Z,1016.46
2019-06-08T11:00:22.548Z,1016.46
2019-06-08T11:01:18.766Z,1016.54
2019-06-08T11:02:18.810Z,1016.76
2019-06-08T11:03:17.172Z,1016.74
2019-06-08T11:04:18.640Z,1016.75
2019-06-08T11:05:18.069Z,1016.61
2019-06-08T11:06:18.739Z,1016.55
2019-06-08T11:07:17.211Z,1016.40
2019-06-08T11:08:18.793Z,1016.45
2019-06-08T11:09:18.858Z,1016.44
2019-06-08T11:10:19.123Z,1016.50
2019-06-08T11:11:19.850Z,1016.43
2019-06-08T11:12:18.378Z,1016.45
2019-06-08T11:13:18.879Z,1016.64
2019-06-08T11:14:18.417Z,1016.66
2019-06-08T11:15:17.202Z,1016.68
2019-06-08T11:16:18.039Z,1016.82
2019-06-08T11:17:17.947Z,1016.61
2019-06-08T11:18:18.556Z,1016.56
2019-06-08T11:19:17.983Z,1016.81
2019-06-08T11:20:17.290Z,1016.75
2019-06-08T11:21:18.690Z,1016.63
2019-06-08T11:22:18.058Z,1016.72
2019-06-08T11:23:18.821Z,1016.71
2019-06-08T11:24:24.152Z,1016.67
2019-06-08T11:25:19.778Z,1016.48
2019-06-08T11:26:19.859Z,1016.48
2019-06-08T11:27:18.766Z,1016.42
2019-06-08T11:28:18.560Z,1016.38
2019-06-08T11:29:18.812Z,1016.28
2019-06-08T11:30:23.628Z,1016.34
2019-06-08T11:31:19.621Z,1016.22
2019-06-08T11:32:18.393Z,1016.12
2019-06-08T11:33:17.282Z,1016.16
2019-06-08T11:34:18.619Z,1016.23
2019-06-08T11:35:17.802Z,1016.32
2019-06-08T11:36:18.846Z,1017.04
2019-06-08T11:37:20.835Z,1016.54
2019-06-08T11:38:17.489Z,1017.13
2019-06-08T11:39:18.726Z,1017.00
2019-06-08T11:40:18.076Z,1016.87
2019-06-08T11:41:19.002Z,1016.90
2019-06-08T11:42:19.100Z,1016.93
2019-06-08T11:43:18.311Z,1016.98
2019-06-08T11:44:18.202Z,1017.10
2019-06-08T11:45:17.837Z,1016.94
2019-06-08T11:46:20.917Z,1016.78
2019-06-08T11:47:18.203Z,1016.67
2019-06-08T11:48:18.302Z,1016.92
2019-06-08T11:49:18.740Z,1016.86
2019-06-08T11:50:18.269Z,1016.90
2019-06-08T11:51:17.417Z,1016.89
2019-06-08T11:52:18.442Z,1016.79
2019-06-08T11:53:18.186Z,1016.49
2019-06-08T11:54:32.727Z,1016.26
2019-06-08T11:55:18.150Z,1016.68
2019-06-08T11:56:18.248Z,1016.69
2019-06-08T11:57:17.800Z,1016.38
2019-06-08T11:58:22.184Z,1016.33
2019-06-08T11:59:17.509Z,1016.38
2019-06-08T12:00:25.207Z,1016.53
2019-06-08T12:01:18.624Z,1016.54
2019-06-08T12:02:18.552Z,1016.40
2019-06-08T12:03:17.560Z,1016.40
2019-06-08T12:04:18.371Z,1016.30
2019-06-08T12:05:18.081Z,1016.61